Time;durP1;ratioP1;P1;durP2;ratioP2;P2;SDS_P1;SDS_P2;PMS_P1;PMS_P2;Temp;Humidity;BMP_temperature;BMP_pressure;BME280_temperature;BME280_humidity;BME280_pressure;Samples;Min_cycle;Max_cycle;Signal;HPM_P1;HPM_P2
2024/03/10 00:02:19;;;;;;;;;;;18.20;56.80;;;;;;5043152;28;1332;-72
2024/03/10 00:04:45;;;;;;;;;;;18.20;56.80;;;;;;5047862;28;1578;-70
2024/03/10 00:07:10;;;;;;;;;;;18.10;56.80;;;;;;5042133;28;1526;-72
2024/03/10 00:09:36;;;;;;;;;;;18.20;56.90;;;;;;5041276;28;1315;-72
2024/03/10 00:12:01;;;;;;;;;;;18.10;56.80;;;;;;5044618;28;1538;-72
2024/03/10 00:14:27;;;;;;;;;;;18.10;56.80;;;;;;5042342;28;1504;-73
2024/03/10 00:16:52;;;;;;;;;;;18.10;56.90;;;;;;5039017;28;1308;-71
2024/03/10 00:19:18;;;;;;;;;;;18.10;56.80;;;;;;5037831;28;1901;-72
2024/03/10 00:21:43;;;;;;;;;;;18.10;56.90;;;;;;5044194;28;1442;-71
2024/03/10 00:24:09;;;;;;;;;;;18.10;56.90;;;;;;5043226;28;1236;-72
2024/03/10 00:26:34;;;;;;;;;;;18.10;56.90;;;;;;5042468;28;980;-73
2024/03/10 00:29:00;;;;;;;;;;;18.10;56.90;;;;;;5043670;28;1294;-72
2024/03/10 00:31:25;;;;;;;;;;;18.10;56.90;;;;;;5043257;28;1193;-73
2024/03/10 00:33:51;;;;;;;;;;;18.10;56.90;;;;;;5041056;28;1369;-72
2024/03/10 00:36:18;;;;;;;;;;;18.10;57.00;;;;;;5042199;28;1257;-72
2024/03/10 00:38:44;;;;;;;;;;;18.10;56.90;;;;;;5041704;28;1962;-72
2024/03/10 00:41:09;;;;;;;;;;;18.10;57.00;;;;;;5041773;28;1474;-72
2024/03/10 00:43:35;;;;;;;;;;;18.10;57.00;;;;;;5048272;28;1590;-72
2024/03/10 00:46:00;;;;;;;;;;;18.10;57.10;;;;;;5048364;28;1701;-72
2024/03/10 00:48:26;;;;;;;;;;;18.10;57.00;;;;;;5042523;28;1640;-72
2024/03/10 00:50:51;;;;;;;;;;;18.10;57.00;;;;;;5039784;28;1515;-72
2024/03/10 00:53:18;;;;;;;;;;;18.10;57.00;;;;;;5040648;28;1488;-72
2024/03/10 00:55:43;;;;;;;;;;;18.10;57.10;;;;;;5038832;28;1566;-72
2024/03/10 00:58:10;;;;;;;;;;;18.10;57.10;;;;;;5040142;28;1519;-72
2024/03/10 01:00:36;;;;;;;;;;;18.10;57.10;;;;;;5049068;28;1977;-72
2024/03/10 01:03:02;;;;;;;;;;;18.10;57.10;;;;;;5036995;28;1296;-72
2024/03/10 01:05:30;;;;;;;;;;;18.10;57.10;;;;;;5037143;28;1396;-72
2024/03/10 01:07:56;;;;;;;;;;;18.10;57.10;;;;;;5043709;28;1442;-72
2024/03/10 01:10:21;;;;;;;;;;;18.10;57.10;;;;;;5038164;28;1299;-72
2024/03/10 01:12:48;;;;;;;;;;;18.00;57.10;;;;;;5039420;28;1523;-72
2024/03/10 01:15:13;;;;;;;;;;;18.10;57.10;;;;;;5038298;28;1429;-71
2024/03/10 01:17:39;;;;;;;;;;;18.10;57.20;;;;;;5040254;28;1210;-71
2024/03/10 01:20:06;;;;;;;;;;;18.10;57.20;;;;;;5041886;28;1905;-72
2024/03/10 01:22:31;;;;;;;;;;;18.00;57.10;;;;;;5038044;28;1386;-72
2024/03/10 01:24:57;;;;;;;;;;;18.00;57.10;;;;;;5040898;28;1622;-72
2024/03/10 01:27:23;;;;;;;;;;;18.00;57.20;;;;;;5038018;28;1348;-72
2024/03/10 01:29:48;;;;;;;;;;;18.00;57.20;;;;;;5038158;28;1583;-72
2024/03/10 01:32:14;;;;;;;;;;;18.00;57.20;;;;;;5047965;28;1284;-72
2024/03/10 01:34:39;;;;;;;;;;;18.00;57.20;;;;;;5041624;28;1481;-72
2024/03/10 01:37:05;;;;;;;;;;;18.00;57.20;;;;;;5042647;28;1381;-72
2024/03/10 01:39:30;;;;;;;;;;;18.00;57.20;;;;;;5037146;28;1902;-72
2024/03/10 01:41:57;;;;;;;;;;;18.00;57.20;;;;;;5041051;28;1580;-72
2024/03/10 01:44:23;;;;;;;;;;;18.00;57.30;;;;;;5036832;28;1344;-72
2024/03/10 01:46:49;;;;;;;;;;;18.00;57.30;;;;;;5037206;28;1804;-72
2024/03/10 01:49:14;;;;;;;;;;;18.00;57.30;;;;;;5037274;28;1538;-72
2024/03/10 01:51:40;;;;;;;;;;;18.00;57.30;;;;;;5041210;28;1338;-72
2024/03/10 01:54:06;;;;;;;;;;;18.00;57.30;;;;;;5038911;28;1594;-72
2024/03/10 01:56:31;;;;;;;;;;;18.00;57.30;;;;;;5040217;28;1634;-72
2024/03/10 01:58:57;;;;;;;;;;;18.00;57.30;;;;;;5040037;28;1894;-72
2024/03/10 02:01:22;;;;;;;;;;;18.00;57.30;;;;;;5039968;28;1117;-72
2024/03/10 02:03:49;;;;;;;;;;;18.00;57.30;;;;;;5038761;28;1276;-72
2024/03/10 02:06:15;;;;;;;;;;;18.00;57.30;;;;;;5038075;28;1326;-72
2024/03/10 02:08:40;;;;;;;;;;;18.00;57.30;;;;;;5040033;28;1360;-72
2024/03/10 02:11:07;;;;;;;;;;;18.00;57.40;;;;;;5039555;28;1536;-72
2024/03/10 02:13:33;;;;;;;;;;;18.00;57.40;;;;;;5036949;28;1464;-72
2024/03/10 02:16:05;;;;;;;;;;;17.90;57.30;;;;;;5036836;28;1457;-72
2024/03/10 02:18:30;;;;;;;;;;;18.00;57.40;;;;;;5037276;28;1357;-72
2024/03/10 02:20:57;;;;;;;;;;;18.00;57.40;;;;;;5039331;28;1965;-72
2024/03/10 02:23:32;;;;;;;;;;;17.90;57.40;;;;;;5039603;28;1478;-72
2024/03/10 02:25:59;;;;;;;;;;;18.00;57.40;;;;;;5039122;28;1813;-72
2024/03/10 02:28:35;;;;;;;;;;;18.00;57.40;;;;;;5036644;28;1320;-72
2024/03/10 02:47:12;;;;;;;;;;;18.00;57.50;;;;;;5036318;28;1196;-72
2024/03/10 02:47:31;;;;;;;;;;;17.90;57.40;;;;;;5036427;28;1312;-72
2024/03/10 02:49:57;;;;;;;;;;;17.90;57.50;;;;;;5045548;28;1778;-72
2024/03/10 02:52:22;;;;;;;;;;;17.90;57.50;;;;;;5039504;28;1432;-72
2024/03/10 02:54:48;;;;;;;;;;;17.90;57.50;;;;;;5040824;28;1288;-72
2024/03/10 02:57:13;;;;;;;;;;;17.90;57.50;;;;;;5038263;28;1001;-72
2024/03/10 02:59:39;;;;;;;;;;;17.90;57.50;;;;;;5039574;28;1911;-72
2024/03/10 03:02:05;;;;;;;;;;;17.90;57.50;;;;;;5036779;28;1358;-72
2024/03/10 03:04:31;;;;;;;;;;;17.90;57.50;;;;;;5037014;28;923;-72
2024/03/10 03:06:57;;;;;;;;;;;17.90;57.50;;;;;;5038186;28;1597;-72
2024/03/10 03:09:23;;;;;;;;;;;17.90;57.60;;;;;;5038382;28;1277;-72
2024/03/10 03:11:49;;;;;;;;;;;17.90;57.60;;;;;;5039006;28;1460;-72
2024/03/10 03:14:14;;;;;;;;;;;17.90;57.60;;;;;;5035600;28;1463;-72
2024/03/10 03:16:42;;;;;;;;;;;17.90;57.60;;;;;;5037091;28;1465;-72
2024/03/10 03:19:08;;;;;;;;;;;17.90;57.60;;;;;;5037898;28;1906;-72
2024/03/10 03:21:34;;;;;;;;;;;17.90;57.60;;;;;;5037056;28;1232;-72
2024/03/10 03:23:59;;;;;;;;;;;17.90;57.60;;;;;;5036732;28;1419;-72
2024/03/10 03:26:25;;;;;;;;;;;17.90;57.60;;;;;;5039196;28;1244;-72
2024/03/10 03:28:50;;;;;;;;;;;17.90;57.60;;;;;;5039177;28;1396;-72
2024/03/10 03:31:17;;;;;;;;;;;17.90;57.60;;;;;;5039518;28;1328;-72
2024/03/10 03:33:43;;;;;;;;;;;17.90;57.60;;;;;;5038394;28;1376;-72
2024/03/10 03:36:08;;;;;;;;;;;17.90;57.60;;;;;;5037885;28;1565;-72
2024/03/10 03:38:34;;;;;;;;;;;17.90;57.60;;;;;;5038127;28;1279;-72
2024/03/10 03:40:59;;;;;;;;;;;17.90;57.60;;;;;;5037891;28;1964;-72
2024/03/10 03:43:25;;;;;;;;;;;17.90;57.70;;;;;;5037594;28;1300;-72
2024/03/10 03:45:50;;;;;;;;;;;17.90;57.70;;;;;;5039896;28;1420;-72
2024/03/10 03:48:15;;;;;;;;;;;17.90;57.70;;;;;;5037484;28;1367;-72
2024/03/10 03:50:41;;;;;;;;;;;17.90;57.70;;;;;;5034789;28;1293;-72
2024/03/10 03:53:07;;;;;;;;;;;17.80;57.70;;;;;;5038061;28;1393;-72
2024/03/10 03:55:33;;;;;;;;;;;17.80;57.70;;;;;;5037605;28;1471;-72
2024/03/10 03:57:58;;;;;;;;;;;17.80;57.70;;;;;;5036231;28;1555;-72
2024/03/10 04:00:24;;;;;;;;;;;17.80;57.70;;;;;;5037427;28;1964;-72
2024/03/10 04:02:49;;;;;;;;;;;17.80;57.70;;;;;;5036663;28;1455;-72
2024/03/10 04:05:15;;;;;;;;;;;17.80;57.70;;;;;;5036721;28;1842;-72
2024/03/10 04:07:41;;;;;;;;;;;17.80;57.70;;;;;;5034668;28;1486;-72
2024/03/10 04:10:09;;;;;;;;;;;17.80;57.70;;;;;;5030687;28;1235;-72
2024/03/10 04:12:35;;;;;;;;;;;17.80;57.70;;;;;;5041622;28;1622;-71
2024/03/10 04:15:01;;;;;;;;;;;17.80;57.70;;;;;;5042820;28;1740;-72
2024/03/10 04:17:26;;;;;;;;;;;17.80;57.70;;;;;;5041095;28;1561;-72
2024/03/10 04:19:52;;;;;;;;;;;17.80;57.70;;;;;;5044347;28;1906;-72
2024/03/10 04:22:18;;;;;;;;;;;17.80;57.70;;;;;;5041263;28;1256;-72
2024/03/10 04:24:44;;;;;;;;;;;17.80;57.80;;;;;;5044727;28;1337;-72
2024/03/10 04:27:09;;;;;;;;;;;17.80;57.80;;;;;;5047479;28;1348;-72
2024/03/10 04:29:35;;;;;;;;;;;17.80;57.80;;;;;;5039931;28;1421;-72
2024/03/10 04:32:01;;;;;;;;;;;17.80;57.80;;;;;;5042223;28;1355;-72
2024/03/10 04:34:26;;;;;;;;;;;17.80;57.80;;;;;;5043053;28;1368;-72
2024/03/10 04:36:51;;;;;;;;;;;17.80;57.80;;;;;;5047501;28;1251;-72
2024/03/10 04:39:18;;;;;;;;;;;17.80;57.80;;;;;;5042247;28;1898;-73
2024/03/10 04:41:45;;;;;;;;;;;17.80;57.80;;;;;;5048922;28;1376;-72
2024/03/10 04:44:11;;;;;;;;;;;17.80;57.80;;;;;;5042757;28;1330;-72
2024/03/10 04:46:39;;;;;;;;;;;17.80;57.80;;;;;;5042985;28;1316;-72
2024/03/10 04:49:04;;;;;;;;;;;17.80;57.80;;;;;;5040814;28;1940;-72
2024/03/10 04:51:30;;;;;;;;;;;17.80;57.80;;;;;;5044363;28;1394;-72
2024/03/10 04:53:55;;;;;;;;;;;17.80;57.80;;;;;;5046008;28;1335;-72
2024/03/10 04:56:21;;;;;;;;;;;17.80;57.80;;;;;;5042554;28;1341;-72
2024/03/10 04:58:49;;;;;;;;;;;17.80;57.80;;;;;;5043808;28;1964;-72
2024/03/10 05:01:16;;;;;;;;;;;17.80;57.80;;;;;;5046530;28;1151;-72
2024/03/10 05:03:41;;;;;;;;;;;17.80;57.90;;;;;;5027650;28;1288;-72
2024/03/10 05:06:07;;;;;;;;;;;17.80;57.90;;;;;;5045337;28;1439;-72
2024/03/10 05:08:32;;;;;;;;;;;17.80;57.90;;;;;;5040263;28;1210;-72
2024/03/10 05:10:59;;;;;;;;;;;17.80;57.80;;;;;;5041558;28;1508;-72
2024/03/10 05:13:25;;;;;;;;;;;17.80;57.80;;;;;;5039157;28;1363;-72
2024/03/10 05:15:50;;;;;;;;;;;17.80;57.80;;;;;;5041781;28;1108;-72
2024/03/10 05:18:16;;;;;;;;;;;17.80;57.70;;;;;;5041900;28;1572;-72
2024/03/10 05:20:41;;;;;;;;;;;17.90;57.70;;;;;;5042001;28;1910;-72
2024/03/10 05:23:07;;;;;;;;;;;17.90;57.60;;;;;;5042183;28;1350;-72
2024/03/10 05:25:32;;;;;;;;;;;17.90;57.50;;;;;;5043898;28;958;-72
2024/03/10 05:27:58;;;;;;;;;;;18.00;57.50;;;;;;5044710;28;921;-72
2024/03/10 05:30:23;;;;;;;;;;;18.00;57.40;;;;;;5043895;28;1529;-72
2024/03/10 05:32:49;;;;;;;;;;;18.00;57.30;;;;;;5046749;28;1322;-72
2024/03/10 05:35:15;;;;;;;;;;;18.10;57.30;;;;;;5044207;28;1073;-72
2024/03/10 05:37:41;;;;;;;;;;;18.10;57.10;;;;;;5043447;28;958;-72
2024/03/10 05:40:09;;;;;;;;;;;18.10;57.10;;;;;;5041978;28;1991;-72
2024/03/10 05:42:35;;;;;;;;;;;18.10;57.00;;;;;;5043128;28;1394;-72
2024/03/10 05:45:02;;;;;;;;;;;18.10;56.90;;;;;;5043694;28;1326;-72
2024/03/10 05:47:28;;;;;;;;;;;18.20;56.90;;;;;;5041582;28;1225;-72
2024/03/10 05:49:55;;;;;;;;;;;18.20;56.90;;;;;;5039772;28;1103;-72
2024/03/10 05:52:20;;;;;;;;;;;18.20;56.80;;;;;;5046467;28;1267;-72
2024/03/10 05:54:45;;;;;;;;;;;18.30;56.80;;;;;;5044488;28;1353;-72
2024/03/10 05:57:11;;;;;;;;;;;18.30;56.80;;;;;;5046336;28;1432;-72
2024/03/10 05:59:37;;;;;;;;;;;18.30;56.70;;;;;;5041105;28;1902;-72
2024/03/10 06:02:03;;;;;;;;;;;18.30;56.70;;;;;;5041844;28;1812;-72
2024/03/10 06:04:30;;;;;;;;;;;18.30;56.70;;;;;;5039969;28;1469;-72
2024/03/10 06:06:55;;;;;;;;;;;18.30;56.60;;;;;;5043958;28;1565;-72
2024/03/10 06:09:21;;;;;;;;;;;18.30;56.60;;;;;;5039066;28;1341;-72
2024/03/10 06:11:46;;;;;;;;;;;18.30;56.60;;;;;;5042345;28;1245;-72
2024/03/10 06:14:12;;;;;;;;;;;18.30;56.60;;;;;;5039597;28;1349;-72
2024/03/10 06:16:37;;;;;;;;;;;18.30;56.50;;;;;;5041009;28;864;-72
2024/03/10 06:26:56;;;;;;;;;;;18.40;56.60;;;;;;5046080;28;1400;-72
2024/03/10 06:29:23;;;;;;;;;;;18.40;56.60;;;;;;5040505;28;1449;-73
2024/03/10 06:31:48;;;;;;;;;;;18.40;56.50;;;;;;5038412;28;1343;-72
2024/03/10 06:34:14;;;;;;;;;;;18.40;56.60;;;;;;5039228;28;1433;-72
2024/03/10 06:36:39;;;;;;;;;;;18.30;56.50;;;;;;5036474;28;1446;-73
2024/03/10 06:39:05;;;;;;;;;;;18.30;56.50;;;;;;5047459;28;1961;-72
2024/03/10 06:41:31;;;;;;;;;;;18.40;56.60;;;;;;5043025;28;1471;-72
2024/03/10 06:43:56;;;;;;;;;;;18.40;56.60;;;;;;5039422;28;1405;-72
2024/03/10 06:46:22;;;;;;;;;;;18.40;56.60;;;;;;5038053;28;1512;-71
2024/03/10 06:48:47;;;;;;;;;;;18.40;56.60;;;;;;5036613;28;1523;-72
2024/03/10 06:51:13;;;;;;;;;;;18.30;56.50;;;;;;5041284;28;854;-72
2024/03/10 06:53:38;;;;;;;;;;;18.30;56.50;;;;;;5039877;28;1626;-72
2024/03/10 06:56:04;;;;;;;;;;;18.30;56.50;;;;;;5022941;28;1613;-72
2024/03/10 06:58:30;;;;;;;;;;;18.30;56.50;;;;;;5039604;28;1385;-71
2024/03/10 07:00:56;;;;;;;;;;;18.30;56.60;;;;;;5041830;28;1989;-73
2024/03/10 07:03:21;;;;;;;;;;;18.30;56.60;;;;;;5036449;28;1264;-72
2024/03/10 07:05:47;;;;;;;;;;;18.30;54.60;;;;;;5038857;28;1351;-72
2024/03/10 07:08:15;;;;;;;;;;;18.30;54.10;;;;;;5038303;28;1346;-71
2024/03/10 07:10:41;;;;;;;;;;;18.30;54.80;;;;;;5039254;28;1539;-72
2024/03/10 07:13:08;;;;;;;;;;;18.40;54.80;;;;;;5039446;28;2272;-68
2024/03/10 07:15:33;;;;;;;;;;;18.40;54.80;;;;;;5036614;28;1982;-69
2024/03/10 07:17:59;;;;;;;;;;;18.50;54.80;;;;;;5039927;28;1592;-68
2024/03/10 07:20:24;;;;;;;;;;;18.60;54.90;;;;;;5068713;28;1921;-69
2024/03/10 07:22:50;;;;;;;;;;;18.70;54.90;;;;;;5036559;28;1522;-68
2024/03/10 07:25:16;;;;;;;;;;;18.80;55.30;;;;;;5034819;28;1466;-68
2024/03/10 07:27:43;;;;;;;;;;;18.90;54.60;;;;;;5045220;28;1855;-68
2024/03/10 07:30:09;;;;;;;;;;;19.00;54.50;;;;;;5034525;28;1498;-69
2024/03/10 07:32:34;;;;;;;;;;;19.10;54.40;;;;;;5028377;28;1764;-69
2024/03/10 07:35:00;;;;;;;;;;;19.20;54.30;;;;;;5046359;28;1488;-68
2024/03/10 07:37:26;;;;;;;;;;;19.30;54.20;;;;;;5039788;28;1528;-69
2024/03/10 07:39:52;;;;;;;;;;;19.30;54.10;;;;;;5039883;28;1886;-68
2024/03/10 07:42:17;;;;;;;;;;;19.40;53.90;;;;;;5021461;28;1474;-70
2024/03/10 07:44:43;;;;;;;;;;;19.50;53.90;;;;;;5038784;28;1375;-69
2024/03/10 07:47:08;;;;;;;;;;;19.60;53.80;;;;;;5043182;28;1499;-69
2024/03/10 07:49:34;;;;;;;;;;;19.60;53.70;;;;;;5042368;28;1472;-69
2024/03/10 07:51:59;;;;;;;;;;;19.70;53.70;;;;;;5042876;28;1641;-69
2024/03/10 07:54:25;;;;;;;;;;;19.80;53.60;;;;;;5037647;28;1522;-71
2024/03/10 07:56:51;;;;;;;;;;;19.80;53.60;;;;;;5042298;28;1554;-70
2024/03/10 07:59:21;;;;;;;;;;;19.80;53.50;;;;;;5041918;28;1953;-71
2024/03/10 08:01:50;;;;;;;;;;;19.90;53.50;;;;;;5040746;28;2107;-71
2024/03/10 08:04:18;;;;;;;;;;;19.90;53.40;;;;;;5040938;28;1374;-70
2024/03/10 08:06:44;;;;;;;;;;;19.90;53.40;;;;;;5039178;28;1438;-71
2024/03/10 08:09:09;;;;;;;;;;;20.00;53.30;;;;;;5060425;28;1549;-71
2024/03/10 08:11:35;;;;;;;;;;;20.00;53.30;;;;;;5044878;28;1822;-70
2024/03/10 08:14:01;;;;;;;;;;;20.00;53.30;;;;;;5043249;28;1382;-71
2024/03/10 08:16:26;;;;;;;;;;;20.10;53.30;;;;;;5044587;28;1237;-71
2024/03/10 08:18:52;;;;;;;;;;;20.10;53.30;;;;;;5042991;28;1906;-71
2024/03/10 08:21:18;;;;;;;;;;;20.10;53.20;;;;;;5041623;28;1309;-70
2024/03/10 08:23:44;;;;;;;;;;;20.10;53.20;;;;;;5041939;28;1431;-70
2024/03/10 08:26:12;;;;;;;;;;;20.20;53.20;;;;;;5043129;28;1411;-70
2024/03/10 08:28:38;;;;;;;;;;;20.20;53.20;;;;;;5041961;28;1426;-70
2024/03/10 08:31:04;;;;;;;;;;;20.20;53.20;;;;;;5048570;28;1586;-70
2024/03/10 08:33:29;;;;;;;;;;;20.20;53.20;;;;;;5045727;28;1625;-70
2024/03/10 08:35:55;;;;;;;;;;;20.30;53.30;;;;;;5041750;28;1646;-70
2024/03/10 08:38:20;;;;;;;;;;;20.30;53.50;;;;;;5042720;28;1391;-70
2024/03/10 08:40:46;;;;;;;;;;;20.40;53.60;;;;;;5039048;28;1902;-70
2024/03/10 08:43:13;;;;;;;;;;;20.40;53.60;;;;;;5025852;28;1479;-71
2024/03/10 08:45:38;;;;;;;;;;;20.40;53.70;;;;;;5042553;28;1379;-70
2024/03/10 08:48:09;;;;;;;;;;;20.50;53.80;;;;;;5040720;28;1452;-70
2024/03/10 08:50:35;;;;;;;;;;;20.50;53.80;;;;;;5040946;28;1491;-70
2024/03/10 08:53:02;;;;;;;;;;;20.50;54.10;;;;;;5041426;28;1406;-70
2024/03/10 08:55:28;;;;;;;;;;;20.60;53.90;;;;;;5040027;28;2171;-70
2024/03/10 08:57:54;;;;;;;;;;;20.60;53.90;;;;;;5040551;28;1395;-70
2024/03/10 09:00:19;;;;;;;;;;;20.60;53.90;;;;;;5038246;28;1910;-71
2024/03/10 09:02:45;;;;;;;;;;;20.70;54.00;;;;;;5040138;28;1467;-70
2024/03/10 09:05:12;;;;;;;;;;;20.70;54.10;;;;;;5041205;28;1305;-70
2024/03/10 09:07:38;;;;;;;;;;;20.80;54.20;;;;;;5041182;28;1484;-69
2024/03/10 09:10:04;;;;;;;;;;;20.70;54.20;;;;;;5041455;28;1563;-70
2024/03/10 09:12:30;;;;;;;;;;;20.80;54.40;;;;;;5038782;28;1374;-70
2024/03/10 09:14:57;;;;;;;;;;;20.80;54.60;;;;;;5037717;28;1684;-70
2024/03/10 09:17:23;;;;;;;;;;;20.80;54.60;;;;;;5071309;28;1327;-70
2024/03/10 09:19:49;;;;;;;;;;;20.80;54.60;;;;;;5027809;28;1907;-70
2024/03/10 09:22:15;;;;;;;;;;;20.80;54.60;;;;;;5039652;28;1405;-70
2024/03/10 09:24:42;;;;;;;;;;;20.80;54.70;;;;;;5036255;28;1531;-70
2024/03/10 09:27:08;;;;;;;;;;;20.80;54.90;;;;;;5072911;28;1599;-70
2024/03/10 09:29:34;;;;;;;;;;;20.80;55.00;;;;;;5036522;28;1473;-70
2024/03/10 09:32:01;;;;;;;;;;;20.80;55.10;;;;;;5048160;28;1487;-71
2024/03/10 09:34:26;;;;;;;;;;;20.80;55.10;;;;;;5040062;28;1148;-70
2024/03/10 09:36:54;;;;;;;;;;;20.80;55.20;;;;;;5040064;28;1224;-70
2024/03/10 09:39:22;;;;;;;;;;;20.80;55.30;;;;;;5038497;28;1891;-70
2024/03/10 09:41:48;;;;;;;;;;;20.80;55.20;;;;;;5047776;28;1542;-70
2024/03/10 09:44:17;;;;;;;;;;;20.80;55.90;;;;;;5038117;28;1442;-70
2024/03/10 09:46:43;;;;;;;;;;;20.80;56.30;;;;;;5043036;28;1416;-70
2024/03/10 09:49:10;;;;;;;;;;;20.80;56.20;;;;;;5047595;28;1542;-71
2024/03/10 09:51:35;;;;;;;;;;;20.80;56.20;;;;;;5040227;28;1572;-70
2024/03/10 09:54:02;;;;;;;;;;;20.90;56.10;;;;;;5040702;28;1555;-70
2024/03/10 09:56:28;;;;;;;;;;;20.80;55.60;;;;;;5039703;28;1314;-70
2024/03/10 09:58:56;;;;;;;;;;;20.80;55.60;;;;;;5037630;28;1891;-71
2024/03/10 10:01:24;;;;;;;;;;;20.70;55.60;;;;;;5040719;28;1573;-70
2024/03/10 10:03:50;;;;;;;;;;;20.70;56.10;;;;;;5070460;28;1383;-70
2024/03/10 10:06:18;;;;;;;;;;;20.70;56.10;;;;;;5038847;28;1530;-70
2024/03/10 10:08:45;;;;;;;;;;;20.60;56.20;;;;;;5039567;28;1224;-70
2024/03/10 10:11:12;;;;;;;;;;;20.60;56.40;;;;;;5055286;28;1547;-70
2024/03/10 10:13:38;;;;;;;;;;;20.60;56.70;;;;;;5023299;28;1523;-70
2024/03/10 10:16:08;;;;;;;;;;;20.50;56.90;;;;;;5040519;28;1794;-70
2024/03/10 10:18:33;;;;;;;;;;;20.50;56.90;;;;;;5042279;28;1473;-70
2024/03/10 10:20:59;;;;;;;;;;;20.50;57.10;;;;;;5037749;28;1963;-71
2024/03/10 10:23:25;;;;;;;;;;;20.40;57.30;;;;;;5038547;28;1584;-71
2024/03/10 10:25:53;;;;;;;;;;;20.40;57.30;;;;;;5037594;28;1467;-70
2024/03/10 10:28:37;;;;;;;;;;;20.40;57.40;;;;;;5071836;28;1558;-70
2024/03/10 10:31:15;;;;;;;;;;;20.40;57.60;;;;;;5039328;28;1618;-71
2024/03/10 10:33:41;;;;;;;;;;;20.30;57.50;;;;;;5023734;28;1564;-70
2024/03/10 10:36:07;;;;;;;;;;;20.30;57.70;;;;;;5041200;28;1282;-70
2024/03/10 10:38:38;;;;;;;;;;;20.30;57.70;;;;;;5039977;28;1150;-70
2024/03/10 10:41:07;;;;;;;;;;;20.20;57.70;;;;;;5045339;28;1906;-70
2024/03/10 10:43:37;;;;;;;;;;;20.30;57.70;;;;;;5036869;28;1299;-70
2024/03/10 10:46:06;;;;;;;;;;;20.20;57.70;;;;;;5036344;28;1357;-71
2024/03/10 10:48:34;;;;;;;;;;;20.20;57.80;;;;;;5036450;28;1338;-70
2024/03/10 10:51:00;;;;;;;;;;;20.20;58.00;;;;;;5034784;28;1345;-70
2024/03/10 10:53:25;;;;;;;;;;;20.20;57.90;;;;;;5030062;28;1339;-70
2024/03/10 10:55:51;;;;;;;;;;;20.20;57.90;;;;;;5045898;28;1255;-70
2024/03/10 10:58:18;;;;;;;;;;;20.20;57.90;;;;;;5035846;28;1488;-70
2024/03/10 11:01:05;;;;;;;;;;;20.20;57.90;;;;;;5037505;28;1965;-70
2024/03/10 11:03:36;;;;;;;;;;;20.20;58.00;;;;;;5035393;28;1331;-70
2024/03/10 11:06:01;;;;;;;;;;;20.20;58.00;;;;;;5041105;28;948;-70
2024/03/10 11:08:28;;;;;;;;;;;20.20;58.00;;;;;;5039388;28;931;-70
2024/03/10 11:10:54;;;;;;;;;;;20.10;58.00;;;;;;5039812;28;1114;-71
2024/03/10 11:13:20;;;;;;;;;;;20.10;58.20;;;;;;5035233;28;1336;-71
2024/03/10 11:15:46;;;;;;;;;;;20.10;58.20;;;;;;5020159;28;1294;-70
2024/03/10 11:18:27;;;;;;;;;;;20.10;58.20;;;;;;5041025;28;1261;-71
2024/03/10 11:20:53;;;;;;;;;;;20.10;58.30;;;;;;5042782;28;2000;-70
2024/03/10 11:23:23;;;;;;;;;;;20.10;58.40;;;;;;5039057;28;1366;-71
2024/03/10 11:25:50;;;;;;;;;;;20.20;58.40;;;;;;5040907;28;875;-70
2024/03/10 11:28:19;;;;;;;;;;;20.10;59.00;;;;;;5043104;28;1288;-70
2024/03/10 11:30:44;;;;;;;;;;;20.10;58.50;;;;;;5040274;28;1523;-70
2024/03/10 11:33:12;;;;;;;;;;;20.10;58.60;;;;;;5042748;28;1683;-70
2024/03/10 11:35:41;;;;;;;;;;;20.10;58.60;;;;;;5044117;28;1511;-71
2024/03/10 11:38:09;;;;;;;;;;;20.10;58.60;;;;;;5051265;28;1351;-71
2024/03/10 11:40:35;;;;;;;;;;;20.00;58.60;;;;;;5044062;28;1967;-70
2024/03/10 11:43:01;;;;;;;;;;;20.00;58.70;;;;;;5040548;28;1532;-70
2024/03/10 11:45:26;;;;;;;;;;;20.00;58.70;;;;;;5040803;28;2232;-70
2024/03/10 11:47:55;;;;;;;;;;;20.00;58.70;;;;;;5039586;28;1466;-68
2024/03/10 11:50:21;;;;;;;;;;;20.00;58.80;;;;;;5039840;28;1850;-70
2024/03/10 11:52:46;;;;;;;;;;;20.00;58.80;;;;;;5027941;28;1494;-70
2024/03/10 11:55:14;;;;;;;;;;;20.00;59.00;;;;;;5038831;28;1255;-70
2024/03/10 11:57:40;;;;;;;;;;;19.90;58.90;;;;;;5042301;28;1474;-70
2024/03/10 12:00:09;;;;;;;;;;;19.90;59.10;;;;;;5039838;28;1898;-70
2024/03/10 12:02:35;;;;;;;;;;;19.90;59.20;;;;;;5041271;28;1620;-70
2024/03/10 12:05:01;;;;;;;;;;;19.90;59.40;;;;;;5039685;28;1556;-69
2024/03/10 12:07:26;;;;;;;;;;;19.90;59.40;;;;;;5048947;28;1321;-69
2024/03/10 12:09:55;;;;;;;;;;;19.90;59.50;;;;;;5038898;28;1440;-69
2024/03/10 12:12:21;;;;;;;;;;;19.90;59.70;;;;;;5040815;28;1622;-70
2024/03/10 12:14:46;;;;;;;;;;;19.90;59.70;;;;;;5038253;28;1459;-70
2024/03/10 12:17:14;;;;;;;;;;;19.90;59.60;;;;;;5042480;28;1423;-70
2024/03/10 12:19:42;;;;;;;;;;;19.90;59.50;;;;;;5038698;28;1973;-70
2024/03/10 12:22:10;;;;;;;;;;;19.90;59.50;;;;;;5048946;28;1834;-71
2024/03/10 12:24:39;;;;;;;;;;;19.90;59.50;;;;;;5040044;28;1331;-71
2024/03/10 12:27:05;;;;;;;;;;;19.90;59.50;;;;;;5040160;28;1257;-71
2024/03/10 12:29:30;;;;;;;;;;;19.90;59.50;;;;;;5041099;28;1543;-71
2024/03/10 12:31:56;;;;;;;;;;;19.90;59.60;;;;;;5041354;28;1457;-71
2024/03/10 12:34:21;;;;;;;;;;;19.90;60.10;;;;;;5042037;28;1491;-71
2024/03/10 12:36:48;;;;;;;;;;;19.90;59.60;;;;;;5038253;28;1574;-70
2024/03/10 12:39:14;;;;;;;;;;;19.90;59.70;;;;;;5041728;28;1951;-71
2024/03/10 12:41:39;;;;;;;;;;;19.90;59.70;;;;;;5039050;28;1460;-71
2024/03/10 12:44:06;;;;;;;;;;;19.90;59.60;;;;;;5037948;28;1536;-70
2024/03/10 12:46:33;;;;;;;;;;;19.80;59.50;;;;;;5039669;28;1659;-71
2024/03/10 12:48:59;;;;;;;;;;;19.90;59.50;;;;;;5040889;28;1491;-71
2024/03/10 12:51:25;;;;;;;;;;;19.90;59.50;;;;;;5040319;28;1517;-71
2024/03/10 12:53:51;;;;;;;;;;;19.80;59.40;;;;;;5042071;28;1442;-71
2024/03/10 12:56:16;;;;;;;;;;;19.90;59.40;;;;;;5039414;28;1275;-70
2024/03/10 12:58:43;;;;;;;;;;;19.80;59.50;;;;;;5040858;28;1747;-71
2024/03/10 13:01:09;;;;;;;;;;;19.80;59.40;;;;;;5043552;28;1991;-71
2024/03/10 13:03:35;;;;;;;;;;;19.80;59.60;;;;;;5046534;28;2290;-71
2024/03/10 13:06:03;;;;;;;;;;;19.90;58.40;;;;;;5039792;28;1735;-72
2024/03/10 13:08:29;;;;;;;;;;;19.80;55.20;;;;;;5040854;28;1249;-71
2024/03/10 13:10:54;;;;;;;;;;;19.80;53.40;;;;;;5041000;28;1938;-72
2024/03/10 13:13:20;;;;;;;;;;;19.70;52.00;;;;;;5041578;28;1935;-70
2024/03/10 13:15:45;;;;;;;;;;;19.60;51.70;;;;;;5048386;28;1621;-71
2024/03/10 13:18:12;;;;;;;;;;;19.60;51.20;;;;;;5039629;28;2366;-72
2024/03/10 13:20:38;;;;;;;;;;;19.50;51.00;;;;;;5038369;28;1910;-70
2024/03/10 13:23:07;;;;;;;;;;;19.40;50.80;;;;;;5039910;28;1229;-71
2024/03/10 13:25:33;;;;;;;;;;;19.40;50.80;;;;;;5038991;28;1410;-71
2024/03/10 13:27:58;;;;;;;;;;;19.40;50.60;;;;;;5039366;28;1411;-71
2024/03/10 13:30:25;;;;;;;;;;;19.30;50.70;;;;;;5041462;28;1299;-70
2024/03/10 13:32:50;;;;;;;;;;;19.20;50.50;;;;;;5042479;28;1465;-70
2024/03/10 13:35:17;;;;;;;;;;;19.20;50.20;;;;;;5041620;28;1405;-69
2024/03/10 13:37:46;;;;;;;;;;;19.20;50.10;;;;;;5040482;28;1323;-70
2024/03/10 13:40:11;;;;;;;;;;;19.10;50.00;;;;;;5040589;28;1902;-70
2024/03/10 13:42:40;;;;;;;;;;;19.10;50.00;;;;;;5036174;28;1486;-69
2024/03/10 13:45:09;;;;;;;;;;;19.10;50.00;;;;;;5038998;28;1177;-68
2024/03/10 13:47:39;;;;;;;;;;;19.00;50.00;;;;;;5037288;28;1328;-68
2024/03/10 13:50:06;;;;;;;;;;;19.00;50.10;;;;;;5039401;28;1515;-70
2024/03/10 13:52:32;;;;;;;;;;;19.00;50.20;;;;;;5039973;28;1504;-70
2024/03/10 13:54:59;;;;;;;;;;;19.00;51.90;;;;;;5046817;28;1529;-69
2024/03/10 13:57:25;;;;;;;;;;;19.00;51.90;;;;;;5039727;28;1380;-69
2024/03/10 13:59:51;;;;;;;;;;;18.90;52.00;;;;;;5036517;28;1951;-70
2024/03/10 14:02:16;;;;;;;;;;;18.90;52.50;;;;;;5038908;28;1917;-70
2024/03/10 14:04:42;;;;;;;;;;;19.00;52.80;;;;;;5037977;28;1500;-70
2024/03/10 14:07:08;;;;;;;;;;;19.00;52.90;;;;;;5041728;28;1492;-70
2024/03/10 14:09:33;;;;;;;;;;;19.00;53.00;;;;;;5038095;28;998;-70
2024/03/10 14:11:59;;;;;;;;;;;18.90;53.10;;;;;;5038840;28;994;-70
2024/03/10 14:14:24;;;;;;;;;;;19.00;53.40;;;;;;5023832;28;1311;-70
2024/03/10 14:16:50;;;;;;;;;;;19.00;53.40;;;;;;5039545;28;900;-70
2024/03/10 14:19:16;;;;;;;;;;;19.00;53.50;;;;;;5038760;28;1906;-69
2024/03/10 14:21:42;;;;;;;;;;;19.00;53.60;;;;;;5044400;28;1319;-68
2024/03/10 14:24:09;;;;;;;;;;;19.00;53.70;;;;;;5040344;28;1625;-69
2024/03/10 14:26:35;;;;;;;;;;;19.00;53.80;;;;;;5024729;28;1522;-68
2024/03/10 14:29:00;;;;;;;;;;;19.00;53.80;;;;;;5038135;28;1960;-68
2024/03/10 14:31:26;;;;;;;;;;;19.00;53.90;;;;;;5035772;28;1941;-69
2024/03/10 14:33:54;;;;;;;;;;;19.10;56.10;;;;;;5037880;28;2083;-68
2024/03/10 14:36:19;;;;;;;;;;;19.10;56.30;;;;;;5046229;28;1233;-68
2024/03/10 14:38:45;;;;;;;;;;;19.20;55.80;;;;;;5036896;28;1599;-69
2024/03/10 14:41:11;;;;;;;;;;;19.20;55.40;;;;;;5037429;28;1942;-70
2024/03/10 14:43:36;;;;;;;;;;;19.20;55.30;;;;;;5024498;28;1587;-70
2024/03/10 14:46:04;;;;;;;;;;;19.20;55.30;;;;;;5070118;28;1338;-70
2024/03/10 14:48:33;;;;;;;;;;;19.10;55.20;;;;;;5038869;28;1547;-70